createdAt,value
2022-09-03T00:00:59.428Z,991.65
2022-09-03T00:01:59.524Z,991.66
2022-09-03T00:02:59.579Z,991.67
2022-09-03T00:03:59.416Z,991.67
2022-09-03T00:04:59.415Z,991.68
2022-09-03T00:05:59.393Z,991.66
2022-09-03T00:06:59.384Z,991.64
2022-09-03T00:07:59.371Z,991.65
2022-09-03T00:08:59.400Z,991.61
2022-09-03T00:09:59.377Z,991.66
2022-09-03T00:10:59.375Z,991.61
2022-09-03T00:11:59.376Z,991.61
2022-09-03T00:12:59.379Z,991.62
2022-09-03T00:13:59.356Z,991.60
2022-09-03T00:14:59.343Z,991.58
2022-09-03T00:15:59.382Z,991.59
2022-09-03T00:16:59.325Z,991.55
2022-09-03T00:17:59.341Z,991.57
2022-09-03T00:18:59.577Z,991.57
2022-09-03T00:19:59.295Z,991.58
2022-09-03T00:20:59.290Z,991.61
2022-09-03T00:21:59.302Z,991.57
2022-09-03T00:22:59.267Z,991.62
2022-09-03T00:23:59.276Z,991.60
2022-09-03T00:24:59.279Z,991.58
2022-09-03T00:25:59.249Z,991.63
2022-09-03T00:26:59.258Z,991.60
2022-09-03T00:27:59.261Z,991.57
2022-09-03T00:28:59.913Z,991.58
2022-09-03T00:29:59.239Z,991.58
2022-09-03T00:30:59.295Z,991.61
2022-09-03T00:31:59.279Z,991.60
2022-09-03T00:32:59.241Z,991.59
2022-09-03T00:33:59.277Z,991.60
2022-09-03T00:34:59.211Z,991.57
2022-09-03T00:35:59.305Z,991.56
2022-09-03T00:36:59.239Z,991.58
2022-09-03T00:37:59.183Z,991.58
2022-09-03T00:38:59.207Z,991.59
2022-09-03T00:39:59.241Z,991.58
2022-09-03T00:40:59.158Z,991.60
2022-09-03T00:41:59.151Z,991.61
2022-09-03T00:42:59.167Z,991.61
2022-09-03T00:43:59.162Z,991.62
2022-09-03T00:44:59.168Z,991.65
2022-09-03T00:45:59.225Z,991.60
2022-09-03T00:46:59.149Z,991.63
2022-09-03T00:47:59.148Z,991.63
2022-09-03T00:48:59.115Z,991.67
2022-09-03T00:49:59.089Z,991.64
2022-09-03T00:50:59.095Z,991.60
2022-09-03T00:51:59.076Z,991.60
2022-09-03T00:52:59.115Z,991.62
2022-09-03T00:53:59.096Z,991.61
2022-09-03T00:54:59.068Z,991.62
2022-09-03T00:55:59.098Z,991.65
2022-09-03T00:56:59.092Z,991.63
2022-09-03T00:57:59.076Z,991.62
2022-09-03T00:58:59.055Z,991.63
2022-09-03T00:59:59.093Z,991.62
2022-09-03T01:00:59.032Z,991.62
2022-09-03T01:01:59.254Z,991.60
2022-09-03T01:02:59.029Z,991.64
2022-09-03T01:03:59.026Z,991.63
2022-09-03T01:04:59.035Z,991.63
2022-09-03T01:06:01.703Z,991.65
2022-09-03T01:06:58.978Z,991.63
2022-09-03T01:07:58.984Z,991.65
2022-09-03T01:08:58.974Z,991.65
2022-09-03T01:09:58.965Z,991.64
2022-09-03T01:10:58.950Z,991.64
2022-09-03T01:11:58.972Z,991.65
2022-09-03T01:12:58.942Z,991.65
2022-09-03T01:13:58.964Z,991.66
2022-09-03T01:14:58.972Z,991.66
2022-09-03T01:15:59.010Z,991.65
2022-09-03T01:16:58.924Z,991.67
2022-09-03T01:17:58.916Z,991.69
2022-09-03T01:18:58.908Z,991.68
2022-09-03T01:19:58.905Z,991.66
2022-09-03T01:20:58.909Z,991.62
2022-09-03T01:21:58.867Z,991.63
2022-09-03T01:22:58.869Z,991.62
2022-09-03T01:23:58.876Z,991.65
2022-09-03T01:24:58.884Z,991.63
2022-09-03T01:25:58.901Z,991.63
2022-09-03T01:26:58.841Z,991.58
2022-09-03T01:27:58.859Z,991.60
2022-09-03T01:28:58.873Z,991.62
2022-09-03T01:29:58.801Z,991.63
2022-09-03T01:30:58.859Z,991.59
2022-09-03T01:31:58.826Z,991.59
2022-09-03T01:32:58.794Z,991.56
2022-09-03T01:33:58.812Z,991.58
2022-09-03T01:34:58.779Z,991.55
2022-09-03T01:35:58.797Z,991.56
2022-09-03T01:36:58.771Z,991.60
2022-09-03T01:37:58.808Z,991.58
2022-09-03T01:38:58.738Z,991.62
2022-09-03T01:39:58.797Z,991.59
2022-09-03T01:40:58.735Z,991.63
2022-09-03T01:41:58.733Z,991.60
2022-09-03T01:42:58.718Z,991.62
2022-09-03T01:43:58.745Z,991.62
2022-09-03T01:44:58.692Z,991.60
2022-09-03T01:45:58.728Z,991.62
2022-09-03T01:46:58.672Z,991.64
2022-09-03T01:47:58.678Z,991.63
2022-09-03T01:48:58.688Z,991.67
2022-09-03T01:49:58.663Z,991.58
2022-09-03T01:50:58.657Z,991.60
2022-09-03T01:51:58.655Z,991.58
2022-09-03T01:52:58.655Z,991.60
2022-09-03T01:53:58.649Z,991.61
2022-09-03T01:54:58.635Z,991.62
2022-09-03T01:55:58.633Z,991.64
2022-09-03T01:56:58.665Z,991.65
2022-09-03T01:57:58.654Z,991.62
2022-09-03T01:58:58.643Z,991.67
2022-09-03T01:59:58.623Z,991.66
2022-09-03T02:00:58.573Z,991.68
2022-09-03T02:01:58.628Z,991.65
2022-09-03T02:02:58.575Z,991.64
2022-09-03T02:03:58.566Z,991.66
2022-09-03T02:04:58.552Z,991.67
2022-09-03T02:05:58.530Z,991.66
2022-09-03T02:06:58.575Z,991.63
2022-09-03T02:07:58.575Z,991.63
2022-09-03T02:08:58.554Z,991.66
2022-09-03T02:09:58.545Z,991.64
2022-09-03T02:10:58.522Z,991.63
2022-09-03T02:11:58.515Z,991.65
2022-09-03T02:12:58.528Z,991.66
2022-09-03T02:13:58.491Z,991.64
2022-09-03T02:14:58.501Z,991.68
2022-09-03T02:15:58.763Z,991.65
2022-09-03T02:16:58.500Z,991.65
2022-09-03T02:17:58.468Z,991.64
2022-09-03T02:18:58.467Z,991.67
2022-09-03T02:19:58.448Z,991.67
2022-09-03T02:20:58.424Z,991.67
2022-09-03T02:21:58.459Z,991.69
2022-09-03T02:22:58.469Z,991.67
2022-09-03T02:23:58.416Z,991.68
2022-09-03T02:24:58.545Z,991.69
2022-09-03T02:25:58.404Z,991.67
2022-09-03T02:26:58.406Z,991.71
2022-09-03T02:27:58.403Z,991.68
2022-09-03T02:28:58.385Z,991.61
2022-09-03T02:29:58.363Z,991.63
2022-09-03T02:30:58.504Z,991.62
2022-09-03T02:31:58.378Z,991.65
2022-09-03T02:32:58.369Z,991.69
2022-09-03T02:33:58.355Z,991.66
2022-09-03T02:34:58.358Z,991.64
2022-09-03T02:35:58.347Z,991.64
2022-09-03T02:36:58.322Z,991.62
2022-09-03T02:37:58.317Z,991.59
2022-09-03T02:38:58.296Z,991.59
2022-09-03T02:39:58.324Z,991.58
2022-09-03T02:40:58.287Z,991.64
2022-09-03T02:41:58.273Z,991.59
2022-09-03T02:42:58.471Z,991.57
2022-09-03T02:43:58.281Z,991.57
2022-09-03T02:44:58.247Z,991.57
2022-09-03T02:45:58.351Z,991.55
2022-09-03T02:46:58.229Z,991.58
2022-09-03T02:47:58.246Z,991.58
2022-09-03T02:48:58.223Z,991.55
2022-09-03T02:49:58.227Z,991.56
2022-09-03T02:50:58.222Z,991.54
2022-09-03T02:51:58.203Z,991.50
2022-09-03T02:52:58.182Z,991.54
2022-09-03T02:53:58.179Z,991.53
2022-09-03T02:54:58.168Z,991.55
2022-09-03T02:55:58.204Z,991.53
2022-09-03T02:56:58.146Z,991.53
2022-09-03T02:57:58.148Z,991.49
2022-09-03T02:58:58.176Z,991.52
2022-09-03T02:59:58.147Z,991.51
2022-09-03T03:00:58.194Z,991.53
2022-09-03T03:02:01.297Z,991.53
2022-09-03T03:02:58.100Z,991.48
2022-09-03T03:03:58.109Z,991.51
2022-09-03T03:04:58.115Z,991.48
2022-09-03T03:05:58.109Z,991.48
2022-09-03T03:06:58.110Z,991.49
2022-09-03T03:07:58.063Z,991.55
2022-09-03T03:08:58.066Z,991.53
2022-09-03T03:09:58.083Z,991.51
2022-09-03T03:10:58.048Z,991.53
2022-09-03T03:11:58.046Z,991.53
2022-09-03T03:12:58.058Z,991.50
2022-09-03T03:13:58.016Z,991.55
2022-09-03T03:14:58.024Z,991.53
2022-09-03T03:15:58.009Z,991.58
2022-09-03T03:16:58.091Z,991.58
2022-09-03T03:17:57.991Z,991.54
2022-09-03T03:18:57.992Z,991.62
2022-09-03T03:19:57.976Z,991.61
2022-09-03T03:20:58.012Z,991.58
2022-09-03T03:21:57.959Z,991.59
2022-09-03T03:22:57.960Z,991.60
2022-09-03T03:23:57.926Z,991.58
2022-09-03T03:24:57.945Z,991.58
2022-09-03T03:25:57.911Z,991.56
2022-09-03T03:26:57.957Z,991.56
2022-09-03T03:27:57.892Z,991.55
2022-09-03T03:28:57.922Z,991.59
2022-09-03T03:29:57.876Z,991.54
2022-09-03T03:30:57.913Z,991.55
2022-09-03T03:31:57.849Z,991.56
2022-09-03T03:32:57.851Z,991.54
2022-09-03T03:33:57.889Z,991.55
2022-09-03T03:34:57.862Z,991.51
2022-09-03T03:35:57.918Z,991.51
2022-09-03T03:36:57.848Z,991.53
2022-09-03T03:37:57.880Z,991.52
2022-09-03T03:38:57.819Z,991.50
2022-09-03T03:39:57.886Z,991.48
2022-09-03T03:40:57.826Z,991.49
2022-09-03T03:41:57.780Z,991.56
2022-09-03T03:42:57.767Z,991.50
2022-09-03T03:43:57.775Z,991.54
2022-09-03T03:44:57.778Z,991.53
2022-09-03T03:45:57.832Z,991.53
2022-09-03T03:46:57.730Z,991.56
2022-09-03T03:47:57.739Z,991.53
2022-09-03T03:48:57.915Z,991.57
2022-09-03T03:49:57.809Z,991.50
2022-09-03T03:50:57.724Z,991.51
2022-09-03T03:51:57.760Z,991.53
2022-09-03T03:52:57.711Z,991.50
2022-09-03T03:54:00.086Z,991.52
2022-09-03T03:54:57.676Z,991.52
2022-09-03T03:55:57.718Z,991.53
2022-09-03T03:56:57.671Z,991.53
2022-09-03T03:57:57.667Z,991.50
2022-09-03T03:58:57.634Z,991.51
2022-09-03T03:59:57.664Z,991.51
2022-09-03T04:00:57.688Z,991.52
2022-09-03T04:01:57.691Z,991.50
2022-09-03T04:02:57.651Z,991.51
2022-09-03T04:03:57.587Z,991.49
2022-09-03T04:04:57.592Z,991.50
2022-09-03T04:05:57.573Z,991.47
2022-09-03T04:06:57.561Z,991.47
2022-09-03T04:07:57.556Z,991.53
2022-09-03T04:08:57.541Z,991.49
2022-09-03T04:09:57.602Z,991.46
2022-09-03T04:10:57.822Z,991.49
2022-09-03T04:11:58.069Z,991.48
2022-09-03T04:12:57.500Z,991.48
2022-09-03T04:13:57.526Z,991.51
2022-09-03T04:14:57.543Z,991.53
2022-09-03T04:15:57.713Z,991.50
2022-09-03T04:16:57.579Z,991.51
2022-09-03T04:17:57.527Z,991.50
2022-09-03T04:18:57.495Z,991.49
2022-09-03T04:19:57.475Z,991.49
2022-09-03T04:20:57.470Z,991.49
2022-09-03T04:21:57.476Z,991.47
2022-09-03T04:22:57.931Z,991.51
2022-09-03T04:23:57.450Z,991.52
2022-09-03T04:24:57.417Z,991.51
2022-09-03T04:25:57.427Z,991.53
2022-09-03T04:26:57.394Z,991.53
2022-09-03T04:27:57.416Z,991.53
2022-09-03T04:28:57.400Z,991.51
2022-09-03T04:29:57.401Z,991.46
2022-09-03T04:30:57.422Z,991.49
2022-09-03T04:31:57.349Z,991.49
2022-09-03T04:32:57.339Z,991.50
2022-09-03T04:33:57.358Z,991.45
2022-09-03T04:34:57.333Z,991.46
2022-09-03T04:35:57.361Z,991.46
2022-09-03T04:36:57.347Z,991.45
2022-09-03T04:37:57.316Z,991.43
2022-09-03T04:38:57.311Z,991.43
2022-09-03T04:39:57.409Z,991.48
2022-09-03T04:40:57.294Z,991.49
2022-09-03T04:41:59.730Z,991.47
2022-09-03T04:42:57.241Z,991.51
2022-09-03T04:43:57.274Z,991.48
2022-09-03T04:44:57.260Z,991.50
2022-09-03T04:45:57.320Z,991.48
2022-09-03T04:46:57.257Z,991.48
2022-09-03T04:47:57.250Z,991.50
2022-09-03T04:48:57.225Z,991.50
2022-09-03T04:49:57.243Z,991.51
2022-09-03T04:50:57.183Z,991.48
2022-09-03T04:51:57.300Z,991.49
2022-09-03T04:52:57.188Z,991.53
2022-09-03T04:53:57.213Z,991.49
2022-09-03T04:54:57.162Z,991.48
2022-09-03T04:55:57.164Z,991.52
2022-09-03T04:56:57.133Z,991.52
2022-09-03T04:57:57.340Z,991.51
2022-09-03T04:58:57.130Z,991.53
2022-09-03T04:59:57.145Z,991.52
2022-09-03T05:00:57.199Z,991.56
2022-09-03T05:01:57.169Z,991.55
2022-09-03T05:02:57.065Z,991.59
2022-09-03T05:03:57.085Z,991.59
2022-09-03T05:04:57.057Z,991.63
2022-09-03T05:05:57.343Z,991.61
2022-09-03T05:06:57.032Z,991.62
2022-09-03T05:07:57.058Z,991.63
2022-09-03T05:08:57.010Z,991.65
2022-09-03T05:09:57.038Z,991.67
2022-09-03T05:10:56.995Z,991.72
2022-09-03T05:11:57.037Z,991.69
2022-09-03T05:12:57.037Z,991.72
2022-09-03T05:13:57.012Z,991.70
2022-09-03T05:14:57.072Z,991.71
2022-09-03T05:15:57.101Z,991.73
2022-09-03T05:16:57.081Z,991.69
2022-09-03T05:17:56.952Z,991.69
2022-09-03T05:18:57.027Z,991.65
2022-09-03T05:19:56.970Z,991.64
2022-09-03T05:20:57.278Z,991.62
2022-09-03T05:21:57.093Z,991.59
2022-09-03T05:22:56.949Z,991.61
2022-09-03T05:23:57.061Z,991.59
2022-09-03T05:24:56.978Z,991.58
2022-09-03T05:25:56.928Z,991.59
2022-09-03T05:26:57.127Z,991.60
2022-09-03T05:27:57.253Z,991.56
2022-09-03T05:28:56.907Z,991.57
2022-09-03T05:29:56.934Z,991.60
2022-09-03T05:30:57.083Z,991.62
2022-09-03T05:31:57.409Z,991.60
2022-09-03T05:32:57.197Z,991.62
2022-09-03T05:33:57.068Z,991.64
2022-09-03T05:34:56.843Z,991.66
2022-09-03T05:35:56.824Z,991.62
2022-09-03T05:36:57.036Z,991.63
2022-09-03T05:37:57.017Z,991.61
2022-09-03T05:38:58.412Z,991.67
2022-09-03T05:39:56.841Z,991.68
2022-09-03T05:40:56.937Z,991.63
2022-09-03T05:41:56.821Z,991.65
2022-09-03T05:42:57.235Z,991.69
2022-09-03T05:43:56.886Z,991.67
2022-09-03T05:44:56.775Z,991.68
2022-09-03T05:45:56.778Z,991.69
2022-09-03T05:46:56.741Z,991.74
2022-09-03T05:47:57.196Z,991.70
2022-09-03T05:48:56.748Z,991.69
2022-09-03T05:49:56.750Z,991.70
2022-09-03T05:50:56.752Z,991.68
2022-09-03T05:51:56.735Z,991.72
2022-09-03T05:52:56.899Z,991.71
2022-09-03T05:53:56.803Z,991.74
2022-09-03T05:54:56.819Z,991.71
2022-09-03T05:55:56.704Z,991.71
2022-09-03T05:56:56.672Z,991.72
2022-09-03T05:57:56.694Z,991.73
2022-09-03T05:58:56.725Z,991.72
2022-09-03T05:59:56.664Z,991.75
2022-09-03T06:00:56.654Z,991.79
2022-09-03T06:02:00.139Z,991.76
2022-09-03T06:02:56.761Z,991.76
2022-09-03T06:03:56.629Z,991.79
2022-09-03T06:04:56.623Z,991.73
2022-09-03T06:05:56.883Z,991.72
2022-09-03T06:06:56.721Z,991.75
2022-09-03T06:07:56.601Z,991.72
2022-09-03T06:08:57.419Z,991.71
2022-09-03T06:09:56.583Z,991.76
2022-09-03T06:10:56.603Z,991.76
2022-09-03T06:11:57.272Z,991.79
2022-09-03T06:12:56.599Z,991.79
2022-09-03T06:13:56.608Z,991.86
2022-09-03T06:14:56.644Z,991.85
2022-09-03T06:15:56.610Z,991.89
2022-09-03T06:16:56.629Z,991.88
2022-09-03T06:17:56.546Z,991.87
2022-09-03T06:18:56.573Z,991.87
2022-09-03T06:19:56.656Z,991.86
2022-09-03T06:20:56.523Z,991.84
2022-09-03T06:21:56.530Z,991.85
2022-09-03T06:22:56.702Z,991.85
2022-09-03T06:23:56.513Z,991.85
2022-09-03T06:24:56.584Z,991.88
2022-09-03T06:25:56.679Z,991.89
2022-09-03T06:26:56.524Z,991.88
2022-09-03T06:27:56.494Z,991.89
2022-09-03T06:28:56.467Z,991.92
2022-09-03T06:29:56.484Z,991.93
2022-09-03T06:30:56.599Z,991.90
2022-09-03T06:31:56.976Z,991.94
2022-09-03T06:32:56.439Z,991.91
2022-09-03T06:33:59.628Z,991.90
2022-09-03T06:34:56.459Z,991.90
2022-09-03T06:35:56.504Z,991.92
2022-09-03T06:36:56.433Z,991.90
2022-09-03T06:37:56.426Z,991.96
2022-09-03T06:38:56.433Z,991.95
2022-09-03T06:39:56.545Z,991.95
2022-09-03T06:40:56.407Z,991.92
2022-09-03T06:41:56.396Z,991.96
2022-09-03T06:42:56.602Z,991.98
2022-09-03T06:43:56.420Z,991.94
2022-09-03T06:44:56.382Z,991.95
2022-09-03T06:45:56.458Z,991.95
2022-09-03T06:46:56.363Z,991.94
2022-09-03T06:47:56.368Z,991.93
2022-09-03T06:48:56.355Z,991.93
2022-09-03T06:49:56.349Z,991.88
2022-09-03T06:50:56.450Z,991.85
2022-09-03T06:51:56.421Z,991.86
2022-09-03T06:52:56.352Z,991.87
2022-09-03T06:53:56.696Z,991.86
2022-09-03T06:54:56.321Z,991.86
2022-09-03T06:55:56.306Z,991.89
2022-09-03T06:56:56.312Z,991.87
2022-09-03T06:57:56.295Z,991.88
2022-09-03T06:58:56.312Z,991.86
2022-09-03T06:59:56.286Z,991.87
2022-09-03T07:00:56.668Z,991.83
2022-09-03T07:01:56.605Z,991.85
2022-09-03T07:02:56.298Z,991.83
2022-09-03T07:03:56.340Z,991.86
2022-09-03T07:04:56.298Z,991.81
2022-09-03T07:05:56.337Z,991.81
2022-09-03T07:06:56.277Z,991.83
2022-09-03T07:07:56.271Z,991.83
2022-09-03T07:08:56.271Z,991.82
2022-09-03T07:09:56.494Z,991.84
2022-09-03T07:10:56.249Z,991.84
2022-09-03T07:11:56.277Z,991.82
2022-09-03T07:12:56.275Z,991.83
2022-09-03T07:13:56.422Z,991.86
2022-09-03T07:14:56.202Z,991.83
2022-09-03T07:15:56.259Z,991.81
2022-09-03T07:16:56.217Z,991.79
2022-09-03T07:17:56.229Z,991.79
2022-09-03T07:18:56.190Z,991.82
2022-09-03T07:19:56.211Z,991.82
2022-09-03T07:20:56.221Z,991.82
2022-09-03T07:21:56.202Z,991.79
2022-09-03T07:22:56.181Z,991.82
2022-09-03T07:23:56.183Z,991.83
2022-09-03T07:24:56.159Z,991.81
2022-09-03T07:25:56.383Z,991.78
2022-09-03T07:26:56.209Z,991.79
2022-09-03T07:27:56.168Z,991.80
2022-09-03T07:28:56.137Z,991.79
2022-09-03T07:29:56.180Z,991.76
2022-09-03T07:30:56.407Z,991.77
2022-09-03T07:31:56.198Z,991.76
2022-09-03T07:32:56.132Z,991.80
2022-09-03T07:33:56.178Z,991.82
2022-09-03T07:34:56.135Z,991.80
2022-09-03T07:35:56.155Z,991.82
2022-09-03T07:36:56.140Z,991.76
2022-09-03T07:37:56.156Z,991.83
2022-09-03T07:38:56.152Z,991.81
2022-09-03T07:39:56.203Z,991.79
2022-09-03T07:40:56.287Z,991.72
2022-09-03T07:41:56.109Z,991.75
2022-09-03T07:42:56.123Z,991.84
2022-09-03T07:43:56.106Z,991.82
2022-09-03T07:44:56.092Z,991.87
2022-09-03T07:45:56.108Z,991.97
2022-09-03T07:46:56.155Z,991.83
2022-09-03T07:47:56.083Z,991.80
2022-09-03T07:48:56.122Z,991.78
2022-09-03T07:49:56.102Z,991.79
2022-09-03T07:50:56.082Z,991.78
2022-09-03T07:51:56.096Z,991.79
2022-09-03T07:52:56.115Z,991.84
2022-09-03T07:53:56.080Z,991.77
2022-09-03T07:54:56.116Z,991.79
2022-09-03T07:55:56.103Z,991.83
2022-09-03T07:56:56.392Z,991.78
2022-09-03T07:57:56.228Z,991.82
2022-09-03T07:58:56.214Z,991.76
2022-09-03T07:59:56.094Z,991.79
2022-09-03T08:00:56.203Z,991.86
2022-09-03T08:01:56.195Z,991.93
2022-09-03T08:02:56.234Z,991.95
2022-09-03T08:03:56.150Z,991.92
2022-09-03T08:04:56.142Z,991.94
2022-09-03T08:05:56.112Z,991.89
2022-09-03T08:06:56.059Z,991.89
2022-09-03T08:07:56.254Z,991.95
2022-09-03T08:08:58.685Z,991.93
2022-09-03T08:09:56.266Z,991.95
2022-09-03T08:10:56.089Z,991.96
2022-09-03T08:11:56.102Z,991.98
2022-09-03T08:12:56.090Z,991.98
2022-09-03T08:13:56.062Z,991.99
2022-09-03T08:14:56.160Z,991.94
2022-09-03T08:15:56.131Z,991.97
2022-09-03T08:16:56.075Z,991.98
2022-09-03T08:17:56.084Z,991.92
2022-09-03T08:18:56.191Z,991.98
2022-09-03T08:19:56.091Z,991.96
2022-09-03T08:20:56.102Z,991.92
2022-09-03T08:21:56.108Z,991.89
2022-09-03T08:22:56.279Z,991.92
2022-09-03T08:23:56.122Z,991.93
2022-09-03T08:24:56.285Z,991.90
2022-09-03T08:25:56.527Z,991.87
2022-09-03T08:26:56.079Z,991.89
2022-09-03T08:27:56.271Z,991.84
2022-09-03T08:28:56.094Z,991.79
2022-09-03T08:29:56.187Z,991.81
2022-09-03T08:30:56.088Z,991.74
2022-09-03T08:31:56.207Z,991.77
2022-09-03T08:32:56.106Z,991.72
2022-09-03T08:33:56.127Z,991.75
2022-09-03T08:34:56.099Z,991.72
2022-09-03T08:35:56.148Z,991.72
2022-09-03T08:36:56.096Z,991.68
2022-09-03T08:37:56.957Z,991.66
2022-09-03T08:38:56.085Z,991.68
2022-09-03T08:39:56.184Z,991.67
2022-09-03T08:40:56.094Z,991.68
2022-09-03T08:41:56.121Z,991.67
2022-09-03T08:42:56.091Z,991.67
2022-09-03T08:43:56.125Z,991.66
2022-09-03T08:44:56.106Z,991.64
2022-09-03T08:45:56.102Z,991.62
2022-09-03T08:46:56.190Z,991.57
2022-09-03T08:47:56.142Z,991.58
2022-09-03T08:48:56.085Z,991.56
2022-09-03T08:49:56.137Z,991.58
2022-09-03T08:50:56.084Z,991.54
2022-09-03T08:51:56.433Z,991.58
2022-09-03T08:52:56.082Z,991.63
2022-09-03T08:53:56.097Z,991.61
2022-09-03T08:54:56.081Z,991.56
2022-09-03T08:55:56.346Z,991.62
2022-09-03T08:56:56.138Z,991.59
2022-09-03T08:57:56.128Z,991.64
2022-09-03T08:58:56.214Z,991.55
2022-09-03T08:59:56.126Z,991.51
2022-09-03T09:00:56.220Z,991.50
2022-09-03T09:01:56.214Z,991.47
2022-09-03T09:02:56.271Z,991.50
2022-09-03T09:03:56.122Z,991.49
2022-09-03T09:04:56.189Z,991.46
2022-09-03T09:05:56.120Z,991.49
2022-09-03T09:06:56.131Z,991.47
2022-09-03T09:07:56.115Z,991.45
2022-09-03T09:08:56.093Z,991.47
2022-09-03T09:09:56.130Z,991.45
2022-09-03T09:10:56.077Z,991.47
2022-09-03T09:11:56.127Z,991.47
2022-09-03T09:12:56.109Z,991.42
2022-09-03T09:13:56.106Z,991.39
2022-09-03T09:14:56.065Z,991.39
2022-09-03T09:15:56.234Z,991.36
2022-09-03T09:16:56.102Z,991.38
2022-09-03T09:17:56.284Z,991.38
2022-09-03T09:18:56.300Z,991.38
2022-09-03T09:19:56.061Z,991.35
2022-09-03T09:20:56.072Z,991.33
2022-09-03T09:21:56.089Z,991.33
2022-09-03T09:22:56.114Z,991.35
2022-09-03T09:23:56.073Z,991.32
2022-09-03T09:24:56.151Z,991.35
2022-09-03T09:25:56.079Z,991.31
2022-09-03T09:26:56.054Z,991.29
2022-09-03T09:27:56.071Z,991.32
2022-09-03T09:28:56.329Z,991.29
2022-09-03T09:29:56.052Z,991.25
2022-09-03T09:30:56.096Z,991.26
2022-09-03T09:31:56.105Z,991.28
2022-09-03T09:32:56.086Z,991.32
2022-09-03T09:33:56.059Z,991.32
2022-09-03T09:34:56.071Z,991.25
2022-09-03T09:35:56.175Z,991.25
2022-09-03T09:36:56.080Z,991.27
2022-09-03T09:37:56.121Z,991.25
2022-09-03T09:38:56.069Z,991.26
2022-09-03T09:39:56.107Z,991.22
2022-09-03T09:40:56.082Z,991.24
2022-09-03T09:41:56.055Z,991.24
2022-09-03T09:42:56.033Z,991.23
2022-09-03T09:43:56.057Z,991.18
2022-09-03T09:44:56.163Z,991.20
2022-09-03T09:45:56.019Z,991.22
2022-09-03T09:46:56.080Z,991.23
2022-09-03T09:47:56.007Z,991.28
2022-09-03T09:48:56.159Z,991.26
2022-09-03T09:49:56.051Z,991.25
2022-09-03T09:50:56.050Z,991.21
2022-09-03T09:51:56.030Z,991.24
2022-09-03T09:52:59.078Z,991.23
2022-09-03T09:53:56.026Z,991.19
2022-09-03T09:54:56.012Z,991.14
2022-09-03T09:55:56.229Z,991.14
2022-09-03T09:56:56.009Z,991.13
2022-09-03T09:57:56.002Z,991.08
2022-09-03T09:58:56.113Z,991.11
2022-09-03T09:59:56.010Z,991.17
2022-09-03T10:00:56.142Z,991.12
2022-09-03T10:01:56.056Z,991.05
2022-09-03T10:02:56.122Z,991.08
2022-09-03T10:03:55.963Z,991.07
2022-09-03T10:04:55.958Z,991.12
2022-09-03T10:05:55.966Z,991.15
2022-09-03T10:06:55.970Z,991.14
2022-09-03T10:07:56.313Z,991.16
2022-09-03T10:08:56.238Z,991.14
2022-09-03T10:09:56.163Z,991.11
2022-09-03T10:10:56.188Z,991.13
2022-09-03T10:11:56.203Z,991.04
2022-09-03T10:12:55.925Z,991.05
2022-09-03T10:13:55.909Z,991.06
2022-09-03T10:14:55.951Z,991.05
2022-09-03T10:15:56.019Z,991.02
2022-09-03T10:16:56.087Z,991.06
2022-09-03T10:17:55.926Z,991.03
2022-09-03T10:18:55.904Z,991.04
2022-09-03T10:19:55.915Z,991.06
2022-09-03T10:20:56.220Z,991.11
2022-09-03T10:21:56.191Z,991.09
2022-09-03T10:22:56.896Z,991.13
2022-09-03T10:23:55.906Z,991.05
2022-09-03T10:24:55.916Z,991.04
2022-09-03T10:25:55.894Z,991.02
2022-09-03T10:26:55.920Z,991.01
2022-09-03T10:27:55.913Z,991.04
2022-09-03T10:28:56.068Z,991.05
2022-09-03T10:29:55.889Z,991.03
2022-09-03T10:30:55.940Z,990.99
2022-09-03T10:31:55.853Z,991.06
2022-09-03T10:32:55.864Z,991.01
2022-09-03T10:33:55.869Z,990.97
2022-09-03T10:34:56.181Z,990.91
2022-09-03T10:35:55.864Z,990.89
2022-09-03T10:36:55.891Z,990.90
2022-09-03T10:37:55.847Z,990.88
2022-09-03T10:38:55.837Z,990.88
2022-09-03T10:39:55.950Z,990.91
2022-09-03T10:40:55.835Z,990.93
2022-09-03T10:41:55.884Z,990.90
2022-09-03T10:42:55.837Z,990.92
2022-09-03T10:43:55.840Z,990.96
2022-09-03T10:44:56.088Z,990.95
2022-09-03T10:45:55.888Z,990.93
2022-09-03T10:46:55.852Z,990.89
2022-09-03T10:47:55.841Z,990.87
2022-09-03T10:48:55.804Z,990.86
2022-09-03T10:49:55.857Z,990.90
2022-09-03T10:50:55.809Z,990.90
2022-09-03T10:51:55.803Z,990.89
2022-09-03T10:52:55.801Z,990.91
2022-09-03T10:53:55.802Z,990.87
2022-09-03T10:54:55.830Z,990.86
2022-09-03T10:55:55.797Z,990.88
2022-09-03T10:56:55.814Z,990.89
2022-09-03T10:57:55.972Z,990.86
2022-09-03T10:58:55.791Z,990.85
2022-09-03T10:59:55.783Z,990.86
2022-09-03T11:00:55.796Z,990.86
2022-09-03T11:01:55.873Z,990.81
2022-09-03T11:02:55.807Z,990.81
2022-09-03T11:03:55.773Z,990.77
2022-09-03T11:04:55.777Z,990.75
2022-09-03T11:05:55.769Z,990.80
2022-09-03T11:06:55.762Z,990.77
2022-09-03T11:07:55.767Z,990.79
2022-09-03T11:08:55.758Z,990.83
2022-09-03T11:09:55.774Z,990.73
2022-09-03T11:10:55.737Z,990.78
2022-09-03T11:11:55.918Z,990.75
2022-09-03T11:12:55.721Z,990.72
2022-09-03T11:13:55.748Z,990.71
2022-09-03T11:14:56.183Z,990.72
2022-09-03T11:15:56.123Z,990.73
2022-09-03T11:16:55.891Z,990.72
2022-09-03T11:17:55.739Z,990.76
2022-09-03T11:18:55.828Z,990.74
2022-09-03T11:19:55.706Z,990.67
2022-09-03T11:20:55.720Z,990.72
2022-09-03T11:21:56.002Z,990.72
2022-09-03T11:22:56.204Z,990.71
2022-09-03T11:23:55.938Z,990.70
2022-09-03T11:24:55.752Z,990.76
2022-09-03T11:25:55.705Z,990.72
2022-09-03T11:26:55.697Z,990.75
2022-09-03T11:27:56.723Z,990.72
2022-09-03T11:28:55.730Z,990.66
2022-09-03T11:29:55.681Z,990.66
2022-09-03T11:30:55.745Z,990.63
2022-09-03T11:31:55.665Z,990.63
2022-09-03T11:32:56.084Z,990.57
2022-09-03T11:33:55.704Z,990.55
2022-09-03T11:34:55.662Z,990.59
2022-09-03T11:35:55.654Z,990.53
2022-09-03T11:36:55.707Z,990.51
2022-09-03T11:37:55.676Z,990.53
2022-09-03T11:38:55.739Z,990.53
2022-09-03T11:39:56.532Z,990.51
2022-09-03T11:40:55.687Z,990.53
2022-09-03T11:41:55.645Z,990.46
2022-09-03T11:42:55.722Z,990.47
2022-09-03T11:44:00.063Z,990.51
2022-09-03T11:44:55.635Z,990.54
2022-09-03T11:45:55.651Z,990.50
2022-09-03T11:46:55.649Z,990.46
2022-09-03T11:47:55.631Z,990.48
2022-09-03T11:48:55.653Z,990.49
2022-09-03T11:49:55.620Z,990.39
2022-09-03T11:50:55.836Z,990.36
2022-09-03T11:51:55.605Z,990.34
2022-09-03T11:52:55.610Z,990.40
2022-09-03T11:53:55.592Z,990.38
2022-09-03T11:54:55.601Z,990.39
2022-09-03T11:55:55.582Z,990.44
2022-09-03T11:56:55.624Z,990.37
2022-09-03T11:57:55.582Z,990.37
2022-09-03T11:58:55.817Z,990.44
2022-09-03T11:59:55.574Z,990.31
2022-09-03T12:00:55.567Z,990.34
2022-09-03T12:01:55.572Z,990.37
2022-09-03T12:02:58.977Z,990.30
2022-09-03T12:03:55.604Z,990.36
2022-09-03T12:04:55.837Z,990.37
2022-09-03T12:05:55.731Z,990.34
2022-09-03T12:06:55.566Z,990.32
2022-09-03T12:07:55.607Z,990.34
2022-09-03T12:08:55.548Z,990.32
2022-09-03T12:09:55.644Z,990.31
2022-09-03T12:10:55.553Z,990.33
2022-09-03T12:11:55.645Z,990.31
2022-09-03T12:12:55.537Z,990.34
2022-09-03T12:13:55.801Z,990.33
2022-09-03T12:14:55.746Z,990.39
2022-09-03T12:15:55.832Z,990.34
2022-09-03T12:16:55.544Z,990.34
2022-09-03T12:17:55.535Z,990.35
2022-09-03T12:18:55.539Z,990.35
2022-09-03T12:19:55.584Z,990.41
2022-09-03T12:20:55.542Z,990.35
2022-09-03T12:21:55.541Z,990.33
2022-09-03T12:22:55.735Z,990.34
2022-09-03T12:23:58.462Z,990.35
2022-09-03T12:24:55.551Z,990.43
2022-09-03T12:25:55.508Z,990.40
2022-09-03T12:26:55.532Z,990.36
2022-09-03T12:27:55.513Z,990.38
2022-09-03T12:28:55.516Z,990.37